Aérodrome :
LOGIN :

S'inscrire | Disclaimer

   EN    FR    IT 

 










Légende :    VFR   VFR Marginal   IFR   IFR Intensif   IFR Très Intensif
Visi : 
Plafond : 
>= 8 km
>= 3000ft
5 à 8 km
1000 à 3000 ft
1500m à 5 km
500 à 1000 ft
800 à 1500m
200 à 500 ft
< 800m
< 200 ft
Symboles :   Orages  Brouillard  Fortes neiges  Fortes précipitations  Vent > 20 kt
SIGMETs :   Divers  Orages  Givrage  Turbulence  Onde Orograph.  Cendres Volcan.







- Altitude de l'aérodrome : 87 ft
- Code IATA : FSC
- Voir les cartes d'approche


LFKF - Figari

DERNIER METAR :
  • 220000Z AUTO VRB03KT 9999 1700 +RA SCT015/// BKN020/// OVC032/// ///CB 17/16 Q1011

METARs EXPIRÉS :
  • 212330Z AUTO 10004KT 9999 SCT017/// BKN023/// OVC033/// ///CB 17/16 Q1011
  • 212300Z AUTO 08003KT 9999 FEW015/// BKN033/// BKN048/// ///CB 17/16 Q1011
  • 212230Z AUTO 07004KT 9999 SCT015/// OVC046/// ///TCU 17/16 Q1011
  • 212200Z AUTO 09004KT 9999 FEW038 OVC045 17/16 Q1012
  • 212130Z AUTO 08004KT 9999 BKN042 BKN078 OVC100 17/16 Q1012 NOSIG

TAF TAF LFKF
Valide du 21 à 15h jusqu'au 22 à 15h UTC


211400Z 2115/2215 23006KT 9999 SCT020 OVC050
TEMPO 2115/2118 4000 TSRA SCT013 SCT020CB BKN030
PROB30
TEMPO 2200/2206 4000 TSRA SCT010 SCT030CB BKN033
BECMG 2209/2211 24012KT SCT050
Pas de NOTAMs connus pour ce terrain.
1 SIGMET publié pour la FIR Marseille (LFMM) :
 
Orages noyés dans la masse
LFMM SIGMET 8 VALID 212100/220000 LFPW
LFMM MARSEILLE FIR/UIR EMBD TS OBS WI N4400 E00700 - N4345 E00745 - N4230 E00745 - N4215 E00545 - N4330 E00600 - N4400 E00700 TOP FL340 STNR NC=



MET'MAP, la Météo Aéronautique d'un coup d'oeil ! - Copyright ORBIFLY Décembre 2007 - Disclaimer

ORBIFLY MET'MAP TEAM :

Programmation & Développement : Alexandra Zaïnal
Conception & Développement : Baudouin d'Aumeries
Co-Programmation & Développement : Marc-Olivier Méhu
Soutien technique & logistique : Manuel Goepfert

Contact : metmap@orbifly.com




SOURCES & CREDITS :

   NOAA